Weather at Denham Aerodrome

Public forecast

Using degrees Celsius for public forecast. Weather courtesy of forecast.io.

Closest aviation weather report (METAR) to Denham Aerodrome

Closest report is RAF Northolt, 4.1 nm (7.6 km) ESE.

2024/03/01 17:20 (retrieved 11 minutes ago)

EGWU 011720Z 21010KT 9999 -SHRA FEW030TCU BKN090 06/01 Q0992 TEMPO 6000 SHRA SCT0225CB RMK BLU TEMPO WHT

Closest aviation forecast (TAF) to Denham Aerodrome

Closest forecast is RAF Northolt, 4.1 nm (7.6 km) ESE.

2024/03/01 16:46 Correction (retrieved 45 minutes ago)

TAF COR EGWU 011640Z 0116/0209 19014KT 9999 FEW020 PROB40 TEMPO 0116/0124 7000 SHRA SCT020TCU PROB30 TEMPO 0116/0118 19015G28KT 4000 +SHRA BKN014CB PROB30 TEMPO 0118/0124 4000 +SHRA BKN014CB TEMPO 0200/0209 7000 SHRA BKN014 PROB30 TEMPO 0200/0209 4000 +SHRA